sensor_id;sensor_type;location;lat;lon;timestamp;P1;durP1;ratioP1;P2;durP2;ratioP2
50555;SDS011;36508;52.512;13.450;2023-03-29T00:00:50;5.87;;;5.27;;
50555;SDS011;36508;52.512;13.450;2023-03-29T00:03:16;7.17;;;6.47;;
50555;SDS011;36508;52.512;13.450;2023-03-29T00:05:41;6.80;;;6.13;;
50555;SDS011;36508;52.512;13.450;2023-03-29T00:08:08;8.40;;;7.27;;
50555;SDS011;36508;52.512;13.450;2023-03-29T00:10:38;9.40;;;6.93;;
50555;SDS011;36508;52.512;13.450;2023-03-29T00:13:03;7.97;;;4.83;;
50555;SDS011;36508;52.512;13.450;2023-03-29T00:15:29;10.97;;;5.43;;
50555;SDS011;36508;52.512;13.450;2023-03-29T00:17:55;10.33;;;6.90;;
50555;SDS011;36508;52.512;13.450;2023-03-29T00:20:21;10.00;;;6.63;;
50555;SDS011;36508;52.512;13.450;2023-03-29T00:22:47;7.73;;;7.03;;
50555;SDS011;36508;52.512;13.450;2023-03-29T00:25:12;7.23;;;5.93;;
50555;SDS011;36508;52.512;13.450;2023-03-29T00:27:38;9.37;;;6.40;;
50555;SDS011;36508;52.512;13.450;2023-03-29T00:30:05;12.00;;;5.60;;
50555;SDS011;36508;52.512;13.450;2023-03-29T00:32:32;6.60;;;5.40;;
50555;SDS011;36508;52.512;13.450;2023-03-29T00:34:59;6.07;;;5.03;;
50555;SDS011;36508;52.512;13.450;2023-03-29T00:37:26;6.57;;;5.37;;
50555;SDS011;36508;52.512;13.450;2023-03-29T00:39:53;11.00;;;6.70;;
50555;SDS011;36508;52.512;13.450;2023-03-29T00:42:20;10.20;;;5.70;;
50555;SDS011;36508;52.512;13.450;2023-03-29T00:47:35;9.37;;;6.30;;
50555;SDS011;36508;52.512;13.450;2023-03-29T00:52:37;5.53;;;5.00;;
50555;SDS011;36508;52.512;13.450;2023-03-29T00:55:07;8.53;;;5.83;;
50555;SDS011;36508;52.512;13.450;2023-03-29T00:57:41;5.60;;;5.00;;
50555;SDS011;36508;52.512;13.450;2023-03-29T01:00:10;7.50;;;5.13;;
50555;SDS011;36508;52.512;13.450;2023-03-29T01:02:42;6.27;;;5.10;;
50555;SDS011;36508;52.512;13.450;2023-03-29T01:05:15;9.77;;;6.53;;
50555;SDS011;36508;52.512;13.450;2023-03-29T01:10:19;8.95;;;6.10;;
50555;SDS011;36508;52.512;13.450;2023-03-29T01:12:51;6.73;;;5.90;;
50555;SDS011;36508;52.512;13.450;2023-03-29T01:15:24;9.60;;;6.23;;
50555;SDS011;36508;52.512;13.450;2023-03-29T01:17:52;4.80;;;4.33;;
50555;SDS011;36508;52.512;13.450;2023-03-29T01:25:52;5.37;;;4.27;;
50555;SDS011;36508;52.512;13.450;2023-03-29T01:28:44;4.20;;;3.90;;
50555;SDS011;36508;52.512;13.450;2023-03-29T01:31:27;15.97;;;6.73;;
50555;SDS011;36508;52.512;13.450;2023-03-29T01:34:11;5.60;;;4.00;;
50555;SDS011;36508;52.512;13.450;2023-03-29T01:36:40;4.57;;;3.40;;
50555;SDS011;36508;52.512;13.450;2023-03-29T01:39:13;5.03;;;4.53;;
50555;SDS011;36508;52.512;13.450;2023-03-29T01:44:05;10.00;;;7.73;;
50555;SDS011;36508;52.512;13.450;2023-03-29T01:47:00;12.23;;;7.90;;
50555;SDS011;36508;52.512;13.450;2023-03-29T01:49:39;10.20;;;7.83;;
50555;SDS011;36508;52.512;13.450;2023-03-29T01:52:33;7.57;;;6.67;;
50555;SDS011;36508;52.512;13.450;2023-03-29T01:55:12;5.70;;;4.97;;
50555;SDS011;36508;52.512;13.450;2023-03-29T01:57:41;8.03;;;5.40;;
50555;SDS011;36508;52.512;13.450;2023-03-29T02:00:12;9.23;;;5.80;;
50555;SDS011;36508;52.512;13.450;2023-03-29T02:02:40;9.33;;;5.13;;
50555;SDS011;36508;52.512;13.450;2023-03-29T02:05:09;10.40;;;5.87;;
50555;SDS011;36508;52.512;13.450;2023-03-29T02:07:38;9.33;;;4.80;;
50555;SDS011;36508;52.512;13.450;2023-03-29T02:10:06;9.77;;;5.10;;
50555;SDS011;36508;52.512;13.450;2023-03-29T02:12:33;7.53;;;5.27;;
50555;SDS011;36508;52.512;13.450;2023-03-29T02:15:00;10.13;;;4.60;;
50555;SDS011;36508;52.512;13.450;2023-03-29T02:17:26;6.70;;;5.33;;
50555;SDS011;36508;52.512;13.450;2023-03-29T02:19:55;8.73;;;4.90;;
50555;SDS011;36508;52.512;13.450;2023-03-29T02:25:22;11.50;;;6.57;;
50555;SDS011;36508;52.512;13.450;2023-03-29T02:27:48;12.13;;;8.00;;
50555;SDS011;36508;52.512;13.450;2023-03-29T02:30:15;9.53;;;6.30;;
50555;SDS011;36508;52.512;13.450;2023-03-29T02:32:51;11.93;;;5.60;;
50555;SDS011;36508;52.512;13.450;2023-03-29T02:35:37;14.33;;;6.97;;
50555;SDS011;36508;52.512;13.450;2023-03-29T02:38:24;9.70;;;8.70;;
50555;SDS011;36508;52.512;13.450;2023-03-29T02:40:51;12.23;;;8.40;;
50555;SDS011;36508;52.512;13.450;2023-03-29T02:43:19;13.37;;;7.57;;
50555;SDS011;36508;52.512;13.450;2023-03-29T02:45:46;9.03;;;7.77;;
50555;SDS011;36508;52.512;13.450;2023-03-29T02:48:12;12.57;;;6.90;;
50555;SDS011;36508;52.512;13.450;2023-03-29T02:50:42;11.93;;;8.57;;
50555;SDS011;36508;52.512;13.450;2023-03-29T02:53:33;8.97;;;8.03;;
50555;SDS011;36508;52.512;13.450;2023-03-29T02:56:01;10.03;;;7.00;;
50555;SDS011;36508;52.512;13.450;2023-03-29T02:58:28;11.37;;;7.87;;
50555;SDS011;36508;52.512;13.450;2023-03-29T03:00:55;7.63;;;6.53;;
50555;SDS011;36508;52.512;13.450;2023-03-29T03:03:24;9.60;;;7.30;;
50555;SDS011;36508;52.512;13.450;2023-03-29T03:05:50;9.53;;;7.67;;
50555;SDS011;36508;52.512;13.450;2023-03-29T03:08:16;9.27;;;7.30;;
50555;SDS011;36508;52.512;13.450;2023-03-29T03:10:42;9.73;;;7.70;;
50555;SDS011;36508;52.512;13.450;2023-03-29T03:13:09;10.73;;;8.70;;
50555;SDS011;36508;52.512;13.450;2023-03-29T03:15:36;11.10;;;6.70;;
50555;SDS011;36508;52.512;13.450;2023-03-29T03:18:06;9.90;;;7.80;;
50555;SDS011;36508;52.512;13.450;2023-03-29T03:20:33;9.53;;;8.63;;
50555;SDS011;36508;52.512;13.450;2023-03-29T03:23:00;9.50;;;8.50;;
50555;SDS011;36508;52.512;13.450;2023-03-29T03:25:27;15.70;;;8.70;;
50555;SDS011;36508;52.512;13.450;2023-03-29T03:27:54;9.57;;;8.57;;
50555;SDS011;36508;52.512;13.450;2023-03-29T03:30:20;10.90;;;8.60;;
50555;SDS011;36508;52.512;13.450;2023-03-29T03:32:45;11.77;;;9.40;;
50555;SDS011;36508;52.512;13.450;2023-03-29T03:35:12;14.00;;;8.10;;
50555;SDS011;36508;52.512;13.450;2023-03-29T03:37:38;12.40;;;8.57;;
50555;SDS011;36508;52.512;13.450;2023-03-29T03:40:04;9.33;;;8.43;;
50555;SDS011;36508;52.512;13.450;2023-03-29T03:42:36;9.20;;;7.87;;
50555;SDS011;36508;52.512;13.450;2023-03-29T03:45:03;9.57;;;8.57;;
50555;SDS011;36508;52.512;13.450;2023-03-29T03:47:29;10.47;;;7.77;;
50555;SDS011;36508;52.512;13.450;2023-03-29T03:49:55;9.20;;;6.87;;
50555;SDS011;36508;52.512;13.450;2023-03-29T03:52:21;8.47;;;6.20;;
50555;SDS011;36508;52.512;13.450;2023-03-29T03:54:47;12.10;;;7.40;;
50555;SDS011;36508;52.512;13.450;2023-03-29T03:57:14;15.20;;;9.10;;
50555;SDS011;36508;52.512;13.450;2023-03-29T03:59:40;8.97;;;7.07;;
50555;SDS011;36508;52.512;13.450;2023-03-29T04:02:06;18.80;;;7.03;;
50555;SDS011;36508;52.512;13.450;2023-03-29T04:04:31;9.63;;;5.43;;
50555;SDS011;36508;52.512;13.450;2023-03-29T04:06:58;6.63;;;4.60;;
50555;SDS011;36508;52.512;13.450;2023-03-29T04:09:26;5.03;;;4.40;;
50555;SDS011;36508;52.512;13.450;2023-03-29T04:11:56;8.20;;;5.20;;
50555;SDS011;36508;52.512;13.450;2023-03-29T04:14:22;6.93;;;5.67;;
50555;SDS011;36508;52.512;13.450;2023-03-29T04:16:48;7.60;;;6.83;;
50555;SDS011;36508;52.512;13.450;2023-03-29T04:19:14;6.97;;;5.63;;
50555;SDS011;36508;52.512;13.450;2023-03-29T04:21:40;18.87;;;8.43;;
50555;SDS011;36508;52.512;13.450;2023-03-29T04:24:07;6.10;;;4.33;;
50555;SDS011;36508;52.512;13.450;2023-03-29T04:26:32;7.13;;;4.30;;
50555;SDS011;36508;52.512;13.450;2023-03-29T04:28:58;5.23;;;4.53;;
50555;SDS011;36508;52.512;13.450;2023-03-29T04:31:24;11.07;;;4.87;;
50555;SDS011;36508;52.512;13.450;2023-03-29T04:33:49;8.20;;;5.00;;
50555;SDS011;36508;52.512;13.450;2023-03-29T04:36:15;6.37;;;4.60;;
50555;SDS011;36508;52.512;13.450;2023-03-29T04:38:41;6.40;;;4.50;;
50555;SDS011;36508;52.512;13.450;2023-03-29T04:41:08;10.40;;;4.80;;
50555;SDS011;36508;52.512;13.450;2023-03-29T04:43:33;5.07;;;4.53;;
50555;SDS011;36508;52.512;13.450;2023-03-29T04:46:00;5.37;;;4.23;;
50555;SDS011;36508;52.512;13.450;2023-03-29T04:48:26;8.50;;;4.77;;
50555;SDS011;36508;52.512;13.450;2023-03-29T04:50:52;6.33;;;5.13;;
50555;SDS011;36508;52.512;13.450;2023-03-29T04:53:18;6.87;;;6.17;;
50555;SDS011;36508;52.512;13.450;2023-03-29T04:55:45;14.03;;;7.17;;
50555;SDS011;36508;52.512;13.450;2023-03-29T04:58:11;5.97;;;4.37;;
50555;SDS011;36508;52.512;13.450;2023-03-29T05:00:37;5.33;;;4.80;;
50555;SDS011;36508;52.512;13.450;2023-03-29T05:03:03;4.27;;;3.90;;
50555;SDS011;36508;52.512;13.450;2023-03-29T05:05:29;6.93;;;4.47;;
50555;SDS011;36508;52.512;13.450;2023-03-29T05:07:55;10.23;;;4.83;;
50555;SDS011;36508;52.512;13.450;2023-03-29T05:10:21;6.43;;;5.13;;
50555;SDS011;36508;52.512;13.450;2023-03-29T05:12:47;7.50;;;4.90;;
50555;SDS011;36508;52.512;13.450;2023-03-29T05:15:18;6.33;;;5.80;;
50555;SDS011;36508;52.512;13.450;2023-03-29T05:17:47;4.70;;;4.30;;
50555;SDS011;36508;52.512;13.450;2023-03-29T05:20:13;6.63;;;5.57;;
50555;SDS011;36508;52.512;13.450;2023-03-29T05:22:40;5.60;;;4.80;;
50555;SDS011;36508;52.512;13.450;2023-03-29T05:25:06;7.10;;;4.90;;
50555;SDS011;36508;52.512;13.450;2023-03-29T05:27:33;8.10;;;5.00;;
50555;SDS011;36508;52.512;13.450;2023-03-29T05:29:59;5.13;;;4.73;;
50555;SDS011;36508;52.512;13.450;2023-03-29T05:32:26;11.63;;;6.70;;
50555;SDS011;36508;52.512;13.450;2023-03-29T05:34:52;6.77;;;6.13;;
50555;SDS011;36508;52.512;13.450;2023-03-29T05:37:17;11.63;;;9.43;;
50555;SDS011;36508;52.512;13.450;2023-03-29T05:39:43;8.67;;;6.33;;
50555;SDS011;36508;52.512;13.450;2023-03-29T05:42:10;6.87;;;5.70;;
50555;SDS011;36508;52.512;13.450;2023-03-29T05:44:39;7.43;;;6.60;;
50555;SDS011;36508;52.512;13.450;2023-03-29T05:47:05;13.53;;;8.00;;
50555;SDS011;36508;52.512;13.450;2023-03-29T05:49:31;8.60;;;7.70;;
50555;SDS011;36508;52.512;13.450;2023-03-29T05:51:58;9.27;;;8.30;;
50555;SDS011;36508;52.512;13.450;2023-03-29T05:54:24;13.10;;;9.13;;
50555;SDS011;36508;52.512;13.450;2023-03-29T05:56:50;10.57;;;8.50;;
50555;SDS011;36508;52.512;13.450;2023-03-29T05:59:16;11.17;;;9.33;;
50555;SDS011;36508;52.512;13.450;2023-03-29T06:01:43;13.83;;;9.53;;
50555;SDS011;36508;52.512;13.450;2023-03-29T06:04:12;17.13;;;10.87;;
50555;SDS011;36508;52.512;13.450;2023-03-29T06:06:38;8.50;;;6.60;;
50555;SDS011;36508;52.512;13.450;2023-03-29T06:09:05;12.53;;;7.93;;
50555;SDS011;36508;52.512;13.450;2023-03-29T06:11:31;6.93;;;6.23;;
50555;SDS011;36508;52.512;13.450;2023-03-29T06:13:58;5.57;;;5.03;;
50555;SDS011;36508;52.512;13.450;2023-03-29T06:16:26;7.97;;;6.07;;
50555;SDS011;36508;52.512;13.450;2023-03-29T06:18:52;9.10;;;5.77;;
50555;SDS011;36508;52.512;13.450;2023-03-29T06:21:19;10.40;;;6.00;;
50555;SDS011;36508;52.512;13.450;2023-03-29T06:23:45;7.97;;;4.70;;
50555;SDS011;36508;52.512;13.450;2023-03-29T06:26:11;11.80;;;5.40;;
50555;SDS011;36508;52.512;13.450;2023-03-29T06:28:38;11.80;;;6.57;;
50555;SDS011;36508;52.512;13.450;2023-03-29T06:31:04;10.60;;;4.80;;
50555;SDS011;36508;52.512;13.450;2023-03-29T06:33:30;6.03;;;5.50;;
50555;SDS011;36508;52.512;13.450;2023-03-29T06:35:58;6.30;;;5.60;;
50555;SDS011;36508;52.512;13.450;2023-03-29T06:38:24;9.00;;;6.80;;
50555;SDS011;36508;52.512;13.450;2023-03-29T06:41:04;11.33;;;7.40;;
50555;SDS011;36508;52.512;13.450;2023-03-29T06:43:31;12.33;;;8.70;;
50555;SDS011;36508;52.512;13.450;2023-03-29T06:45:57;5.23;;;4.70;;
50555;SDS011;36508;52.512;13.450;2023-03-29T06:48:23;10.70;;;5.47;;
50555;SDS011;36508;52.512;13.450;2023-03-29T06:50:48;8.80;;;5.53;;
50555;SDS011;36508;52.512;13.450;2023-03-29T06:53:16;15.07;;;7.37;;
50555;SDS011;36508;52.512;13.450;2023-03-29T06:55:42;7.30;;;5.80;;
50555;SDS011;36508;52.512;13.450;2023-03-29T06:58:07;6.53;;;5.63;;
50555;SDS011;36508;52.512;13.450;2023-03-29T07:00:33;6.50;;;5.90;;
50555;SDS011;36508;52.512;13.450;2023-03-29T07:03:05;8.63;;;5.60;;
50555;SDS011;36508;52.512;13.450;2023-03-29T07:05:33;6.23;;;5.63;;
50555;SDS011;36508;52.512;13.450;2023-03-29T07:08:05;7.80;;;4.50;;
50555;SDS011;36508;52.512;13.450;2023-03-29T07:10:32;7.77;;;4.63;;
50555;SDS011;36508;52.512;13.450;2023-03-29T07:13:02;8.93;;;5.20;;
50555;SDS011;36508;52.512;13.450;2023-03-29T07:15:30;9.43;;;4.93;;
50555;SDS011;36508;52.512;13.450;2023-03-29T07:17:56;6.40;;;5.17;;
50555;SDS011;36508;52.512;13.450;2023-03-29T07:20:22;8.37;;;4.57;;
50555;SDS011;36508;52.512;13.450;2023-03-29T07:22:48;16.70;;;6.47;;
50555;SDS011;36508;52.512;13.450;2023-03-29T07:25:15;9.37;;;5.70;;
50555;SDS011;36508;52.512;13.450;2023-03-29T07:27:42;10.37;;;5.30;;
50555;SDS011;36508;52.512;13.450;2023-03-29T07:30:10;10.60;;;5.30;;
50555;SDS011;36508;52.512;13.450;2023-03-29T07:32:37;6.13;;;5.33;;
50555;SDS011;36508;52.512;13.450;2023-03-29T07:35:05;9.30;;;5.50;;
50555;SDS011;36508;52.512;13.450;2023-03-29T07:37:33;9.40;;;7.13;;
50555;SDS011;36508;52.512;13.450;2023-03-29T07:40:01;6.00;;;5.40;;
50555;SDS011;36508;52.512;13.450;2023-03-29T07:42:33;6.37;;;5.00;;
50555;SDS011;36508;52.512;13.450;2023-03-29T07:45:04;8.37;;;6.87;;
50555;SDS011;36508;52.512;13.450;2023-03-29T07:47:30;10.33;;;6.40;;
50555;SDS011;36508;52.512;13.450;2023-03-29T07:49:57;14.43;;;9.87;;
50555;SDS011;36508;52.512;13.450;2023-03-29T07:52:23;7.87;;;7.20;;
50555;SDS011;36508;52.512;13.450;2023-03-29T07:54:51;13.33;;;11.47;;
50555;SDS011;36508;52.512;13.450;2023-03-29T07:57:17;10.10;;;5.60;;
50555;SDS011;36508;52.512;13.450;2023-03-29T07:59:43;6.60;;;5.17;;
50555;SDS011;36508;52.512;13.450;2023-03-29T08:02:09;5.60;;;5.03;;
50555;SDS011;36508;52.512;13.450;2023-03-29T08:04:35;5.03;;;4.63;;
50555;SDS011;36508;52.512;13.450;2023-03-29T08:07:01;7.30;;;5.00;;
50555;SDS011;36508;52.512;13.450;2023-03-29T08:09:26;5.53;;;4.67;;
50555;SDS011;36508;52.512;13.450;2023-03-29T08:11:52;5.40;;;4.10;;
50555;SDS011;36508;52.512;13.450;2023-03-29T08:14:18;4.83;;;4.00;;
50555;SDS011;36508;52.512;13.450;2023-03-29T08:16:46;5.60;;;5.00;;
50555;SDS011;36508;52.512;13.450;2023-03-29T08:19:11;5.90;;;5.40;;
50555;SDS011;36508;52.512;13.450;2023-03-29T08:21:38;6.60;;;5.97;;
50555;SDS011;36508;52.512;13.450;2023-03-29T08:24:04;5.37;;;4.07;;
50555;SDS011;36508;52.512;13.450;2023-03-29T08:26:30;5.93;;;4.37;;
50555;SDS011;36508;52.512;13.450;2023-03-29T08:28:56;6.03;;;5.13;;
50555;SDS011;36508;52.512;13.450;2023-03-29T08:31:21;5.90;;;4.30;;
50555;SDS011;36508;52.512;13.450;2023-03-29T08:33:47;9.30;;;4.90;;
50555;SDS011;36508;52.512;13.450;2023-03-29T08:36:13;10.20;;;5.27;;
50555;SDS011;36508;52.512;13.450;2023-03-29T08:38:38;5.80;;;4.40;;
50555;SDS011;36508;52.512;13.450;2023-03-29T08:41:07;4.53;;;3.93;;
50555;SDS011;36508;52.512;13.450;2023-03-29T08:48:58;5.13;;;4.60;;
50555;SDS011;36508;52.512;13.450;2023-03-29T08:51:27;3.97;;;3.67;;
50555;SDS011;36508;52.512;13.450;2023-03-29T08:56:30;4.97;;;4.57;;
50555;SDS011;36508;52.512;13.450;2023-03-29T08:59:00;17.13;;;10.53;;
50555;SDS011;36508;52.512;13.450;2023-03-29T09:01:28;4.67;;;3.70;;
50555;SDS011;36508;52.512;13.450;2023-03-29T09:04:18;5.57;;;4.80;;
50555;SDS011;36508;52.512;13.450;2023-03-29T09:06:47;6.80;;;4.30;;
50555;SDS011;36508;52.512;13.450;2023-03-29T09:09:14;5.93;;;4.23;;
50555;SDS011;36508;52.512;13.450;2023-03-29T09:14:39;4.03;;;3.70;;
50555;SDS011;36508;52.512;13.450;2023-03-29T09:32:02;4.43;;;4.10;;
50555;SDS011;36508;52.512;13.450;2023-03-29T09:34:37;4.00;;;3.40;;
50555;SDS011;36508;52.512;13.450;2023-03-29T09:37:10;4.07;;;3.77;;
50555;SDS011;36508;52.512;13.450;2023-03-29T09:39:45;3.63;;;3.33;;
50555;SDS011;36508;52.512;13.450;2023-03-29T09:42:11;4.07;;;3.77;;
50555;SDS011;36508;52.512;13.450;2023-03-29T09:44:43;5.20;;;4.70;;
50555;SDS011;36508;52.512;13.450;2023-03-29T09:47:27;6.00;;;4.37;;
50555;SDS011;36508;52.512;13.450;2023-03-29T09:49:59;4.20;;;3.90;;
50555;SDS011;36508;52.512;13.450;2023-03-29T09:52:30;4.20;;;3.80;;
50555;SDS011;36508;52.512;13.450;2023-03-29T09:54:56;4.47;;;4.00;;
50555;SDS011;36508;52.512;13.450;2023-03-29T09:57:25;3.90;;;3.50;;
50555;SDS011;36508;52.512;13.450;2023-03-29T09:59:52;4.87;;;4.03;;
50555;SDS011;36508;52.512;13.450;2023-03-29T10:02:19;3.67;;;3.37;;
50555;SDS011;36508;52.512;13.450;2023-03-29T10:04:50;6.10;;;4.30;;
50555;SDS011;36508;52.512;13.450;2023-03-29T10:07:19;3.93;;;3.47;;
50555;SDS011;36508;52.512;13.450;2023-03-29T10:09:44;4.70;;;3.87;;
50555;SDS011;36508;52.512;13.450;2023-03-29T10:12:14;4.43;;;3.63;;
50555;SDS011;36508;52.512;13.450;2023-03-29T10:14:44;3.03;;;2.83;;
50555;SDS011;36508;52.512;13.450;2023-03-29T10:17:14;5.30;;;4.13;;
50555;SDS011;36508;52.512;13.450;2023-03-29T10:19:51;7.10;;;5.63;;
50555;SDS011;36508;52.512;13.450;2023-03-29T10:22:25;8.73;;;4.50;;
50555;SDS011;36508;52.512;13.450;2023-03-29T10:24:56;17.07;;;7.57;;
50555;SDS011;36508;52.512;13.450;2023-03-29T10:27:28;7.30;;;6.47;;
50555;SDS011;36508;52.512;13.450;2023-03-29T10:29:57;4.47;;;4.00;;
50555;SDS011;36508;52.512;13.450;2023-03-29T10:32:29;8.10;;;6.00;;
50555;SDS011;36508;52.512;13.450;2023-03-29T10:37:38;3.53;;;3.23;;
50555;SDS011;36508;52.512;13.450;2023-03-29T10:40:05;4.73;;;3.93;;
50555;SDS011;36508;52.512;13.450;2023-03-29T10:42:45;3.50;;;3.30;;
50555;SDS011;36508;52.512;13.450;2023-03-29T10:45:23;4.17;;;3.83;;
50555;SDS011;36508;52.512;13.450;2023-03-29T10:47:56;3.60;;;3.40;;
50555;SDS011;36508;52.512;13.450;2023-03-29T10:50:23;3.87;;;3.67;;
50555;SDS011;36508;52.512;13.450;2023-03-29T10:52:50;3.13;;;2.93;;
50555;SDS011;36508;52.512;13.450;2023-03-29T10:55:16;3.30;;;3.07;;
50555;SDS011;36508;52.512;13.450;2023-03-29T10:57:52;3.80;;;3.60;;
50555;SDS011;36508;52.512;13.450;2023-03-29T11:06:32;4.87;;;4.00;;
50555;SDS011;36508;52.512;13.450;2023-03-29T11:12:27;6.87;;;6.37;;
50555;SDS011;36508;52.512;13.450;2023-03-29T11:20:30;4.90;;;4.50;;
50555;SDS011;36508;52.512;13.450;2023-03-29T11:23:01;4.63;;;4.23;;
50555;SDS011;36508;52.512;13.450;2023-03-29T11:42:40;4.40;;;4.20;;
50555;SDS011;36508;52.512;13.450;2023-03-29T11:45:13;3.40;;;3.20;;
50555;SDS011;36508;52.512;13.450;2023-03-29T11:47:45;7.17;;;3.10;;
50555;SDS011;36508;52.512;13.450;2023-03-29T11:55:21;3.77;;;3.47;;
50555;SDS011;36508;52.512;13.450;2023-03-29T11:57:57;3.57;;;3.37;;
50555;SDS011;36508;52.512;13.450;2023-03-29T12:05:34;4.77;;;4.37;;
50555;SDS011;36508;52.512;13.450;2023-03-29T12:08:08;4.70;;;4.40;;
50555;SDS011;36508;52.512;13.450;2023-03-29T12:13:43;4.13;;;3.80;;
50555;SDS011;36508;52.512;13.450;2023-03-29T12:16:30;3.43;;;3.30;;
50555;SDS011;36508;52.512;13.450;2023-03-29T12:19:20;4.33;;;4.03;;
50555;SDS011;36508;52.512;13.450;2023-03-29T12:21:55;4.70;;;4.40;;
50555;SDS011;36508;52.512;13.450;2023-03-29T12:24:23;6.33;;;4.33;;
50555;SDS011;36508;52.512;13.450;2023-03-29T12:26:56;3.90;;;3.73;;
50555;SDS011;36508;52.512;13.450;2023-03-29T12:35:38;4.97;;;4.47;;
50555;SDS011;36508;52.512;13.450;2023-03-29T12:38:24;4.73;;;4.33;;
50555;SDS011;36508;52.512;13.450;2023-03-29T12:40:55;4.73;;;4.33;;
50555;SDS011;36508;52.512;13.450;2023-03-29T12:45:57;4.43;;;4.07;;
50555;SDS011;36508;52.512;13.450;2023-03-29T12:48:30;4.00;;;3.80;;
50555;SDS011;36508;52.512;13.450;2023-03-29T12:51:00;4.20;;;3.90;;
50555;SDS011;36508;52.512;13.450;2023-03-29T12:53:34;4.60;;;4.20;;
50555;SDS011;36508;52.512;13.450;2023-03-29T13:11:56;6.53;;;6.13;;
50555;SDS011;36508;52.512;13.450;2023-03-29T13:14:26;6.00;;;4.93;;
50555;SDS011;36508;52.512;13.450;2023-03-29T13:17:00;12.57;;;10.40;;
50555;SDS011;36508;52.512;13.450;2023-03-29T13:28:51;26.33;;;19.43;;
50555;SDS011;36508;52.512;13.450;2023-03-29T13:39:49;4.67;;;4.37;;
50555;SDS011;36508;52.512;13.450;2023-03-29T13:42:23;6.37;;;4.23;;
50555;SDS011;36508;52.512;13.450;2023-03-29T13:45:15;5.50;;;5.10;;
50555;SDS011;36508;52.512;13.450;2023-03-29T13:47:59;4.23;;;3.83;;
50555;SDS011;36508;52.512;13.450;2023-03-29T13:50:35;4.40;;;4.10;;
50555;SDS011;36508;52.512;13.450;2023-03-29T13:53:06;7.17;;;4.23;;
50555;SDS011;36508;52.512;13.450;2023-03-29T13:55:43;4.20;;;3.90;;
50555;SDS011;36508;52.512;13.450;2023-03-29T13:58:14;2.90;;;2.70;;
50555;SDS011;36508;52.512;13.450;2023-03-29T14:01:18;5.63;;;5.10;;
50555;SDS011;36508;52.512;13.450;2023-03-29T14:03:52;5.20;;;4.73;;
50555;SDS011;36508;52.512;13.450;2023-03-29T14:06:22;4.77;;;4.33;;
50555;SDS011;36508;52.512;13.450;2023-03-29T14:08:50;6.67;;;4.13;;
50555;SDS011;36508;52.512;13.450;2023-03-29T14:11:22;4.53;;;4.13;;
50555;SDS011;36508;52.512;13.450;2023-03-29T14:13:53;8.23;;;4.70;;
50555;SDS011;36508;52.512;13.450;2023-03-29T14:16:21;5.03;;;3.80;;
50555;SDS011;36508;52.512;13.450;2023-03-29T14:18:50;5.37;;;4.93;;
50555;SDS011;36508;52.512;13.450;2023-03-29T14:21:17;3.70;;;3.40;;
50555;SDS011;36508;52.512;13.450;2023-03-29T14:23:45;6.50;;;6.00;;
50555;SDS011;36508;52.512;13.450;2023-03-29T14:26:19;8.37;;;5.80;;
50555;SDS011;36508;52.512;13.450;2023-03-29T14:28:47;6.90;;;5.40;;
50555;SDS011;36508;52.512;13.450;2023-03-29T14:31:18;4.47;;;4.10;;
50555;SDS011;36508;52.512;13.450;2023-03-29T14:33:50;4.43;;;4.13;;
50555;SDS011;36508;52.512;13.450;2023-03-29T14:36:17;5.33;;;5.00;;
50555;SDS011;36508;52.512;13.450;2023-03-29T14:38:51;4.07;;;3.70;;
50555;SDS011;36508;52.512;13.450;2023-03-29T14:41:22;7.70;;;5.33;;
50555;SDS011;36508;52.512;13.450;2023-03-29T14:43:52;4.87;;;4.37;;
50555;SDS011;36508;52.512;13.450;2023-03-29T14:46:19;5.63;;;3.70;;
50555;SDS011;36508;52.512;13.450;2023-03-29T14:48:45;5.97;;;5.37;;
50555;SDS011;36508;52.512;13.450;2023-03-29T14:51:12;5.47;;;5.00;;
50555;SDS011;36508;52.512;13.450;2023-03-29T14:53:38;5.40;;;5.00;;
50555;SDS011;36508;52.512;13.450;2023-03-29T14:56:05;5.43;;;4.93;;
50555;SDS011;36508;52.512;13.450;2023-03-29T14:58:42;4.90;;;4.60;;
50555;SDS011;36508;52.512;13.450;2023-03-29T15:01:16;6.70;;;6.10;;
50555;SDS011;36508;52.512;13.450;2023-03-29T15:03:48;6.10;;;5.53;;
50555;SDS011;36508;52.512;13.450;2023-03-29T15:06:13;5.83;;;5.30;;
50555;SDS011;36508;52.512;13.450;2023-03-29T15:08:41;5.67;;;5.20;;
50555;SDS011;36508;52.512;13.450;2023-03-29T15:11:18;6.40;;;5.83;;
50555;SDS011;36508;52.512;13.450;2023-03-29T15:13:47;6.63;;;6.17;;
50555;SDS011;36508;52.512;13.450;2023-03-29T15:16:18;7.20;;;5.80;;
50555;SDS011;36508;52.512;13.450;2023-03-29T15:18:45;7.63;;;6.27;;
50555;SDS011;36508;52.512;13.450;2023-03-29T15:21:13;5.87;;;5.20;;
50555;SDS011;36508;52.512;13.450;2023-03-29T15:23:45;7.60;;;6.07;;
50555;SDS011;36508;52.512;13.450;2023-03-29T15:26:22;5.77;;;5.17;;
50555;SDS011;36508;52.512;13.450;2023-03-29T15:28:51;7.00;;;6.30;;
50555;SDS011;36508;52.512;13.450;2023-03-29T15:31:25;7.70;;;7.20;;
50555;SDS011;36508;52.512;13.450;2023-03-29T15:34:23;7.13;;;6.53;;
50555;SDS011;36508;52.512;13.450;2023-03-29T15:36:49;12.17;;;10.97;;
50555;SDS011;36508;52.512;13.450;2023-03-29T15:39:16;8.10;;;7.10;;
50555;SDS011;36508;52.512;13.450;2023-03-29T15:41:44;7.17;;;6.57;;
50555;SDS011;36508;52.512;13.450;2023-03-29T15:44:13;6.20;;;5.70;;
50555;SDS011;36508;52.512;13.450;2023-03-29T15:46:43;7.43;;;6.90;;
50555;SDS011;36508;52.512;13.450;2023-03-29T15:49:12;9.27;;;7.17;;
50555;SDS011;36508;52.512;13.450;2023-03-29T15:51:38;7.80;;;7.20;;
50555;SDS011;36508;52.512;13.450;2023-03-29T15:54:05;7.37;;;6.67;;
50555;SDS011;36508;52.512;13.450;2023-03-29T15:56:33;8.23;;;7.50;;
50555;SDS011;36508;52.512;13.450;2023-03-29T15:59:07;9.13;;;7.60;;
50555;SDS011;36508;52.512;13.450;2023-03-29T16:01:36;8.23;;;7.60;;
50555;SDS011;36508;52.512;13.450;2023-03-29T16:04:08;8.70;;;7.90;;
50555;SDS011;36508;52.512;13.450;2023-03-29T16:06:36;8.30;;;7.60;;
50555;SDS011;36508;52.512;13.450;2023-03-29T16:09:02;7.30;;;6.70;;
50555;SDS011;36508;52.512;13.450;2023-03-29T16:11:30;8.80;;;8.10;;
50555;SDS011;36508;52.512;13.450;2023-03-29T16:13:56;7.70;;;7.00;;
50555;SDS011;36508;52.512;13.450;2023-03-29T16:16:22;8.93;;;7.80;;
50555;SDS011;36508;52.512;13.450;2023-03-29T16:18:48;8.37;;;7.77;;
50555;SDS011;36508;52.512;13.450;2023-03-29T16:21:14;8.23;;;7.43;;
50555;SDS011;36508;52.512;13.450;2023-03-29T16:23:42;7.17;;;6.60;;
50555;SDS011;36508;52.512;13.450;2023-03-29T16:26:12;13.37;;;8.40;;
50555;SDS011;36508;52.512;13.450;2023-03-29T16:28:40;8.43;;;7.83;;
50555;SDS011;36508;52.512;13.450;2023-03-29T16:31:09;7.40;;;6.90;;
50555;SDS011;36508;52.512;13.450;2023-03-29T16:33:36;7.70;;;7.03;;
50555;SDS011;36508;52.512;13.450;2023-03-29T16:36:02;8.20;;;7.43;;
50555;SDS011;36508;52.512;13.450;2023-03-29T16:38:28;8.43;;;7.70;;
50555;SDS011;36508;52.512;13.450;2023-03-29T16:40:54;7.50;;;7.00;;
50555;SDS011;36508;52.512;13.450;2023-03-29T16:43:21;8.87;;;7.60;;
50555;SDS011;36508;52.512;13.450;2023-03-29T16:45:46;8.93;;;8.03;;
50555;SDS011;36508;52.512;13.450;2023-03-29T16:48:12;9.50;;;8.70;;
50555;SDS011;36508;52.512;13.450;2023-03-29T16:50:43;10.87;;;8.57;;
50555;SDS011;36508;52.512;13.450;2023-03-29T16:53:15;9.23;;;8.20;;
50555;SDS011;36508;52.512;13.450;2023-03-29T16:55:46;8.47;;;7.67;;
50555;SDS011;36508;52.512;13.450;2023-03-29T16:58:13;8.10;;;7.50;;